North Bend, Nebraska
Current Conditions -  °F | °C
As of 2:55 PM on Saturday 20 Dec 2014 (Local Time) from KFET Reporting Station
Haze Haze  
Wind Chill: 26°   Ceiling: 400
Heat Index: 33°   Visibility: 2.5mi
Dew Point: 33°   Wind: 8mph
Humidity: 98%   Direction: 170°S
Pressure: 30.05"   Gusts: NA
Location:  41.46°N, 96.78°W
Report Text: KFET 202055Z AUTO 17007KT 2 1/2SM BR OVC004 01/00 A3005 RMK AO2 T00070004
Loading
Personal Weather Stations






























Interactive Weather Map New forecast layout! Learn more

10-Day Weather Forecast

Advertisements
Track Severe Weather on mobile